sensor_id;sensor_type;location;lat;lon;timestamp;pressure;altitude;pressure_sealevel;temperature;humidity
50172;BME280;37125;48.824;2.410;2023-05-23T00:00:30;101247.09;;;24.38;46.21
50172;BME280;37125;48.824;2.410;2023-05-23T00:01:00;101248.43;;;24.32;46.40
50172;BME280;37125;48.824;2.410;2023-05-23T00:01:31;101250.51;;;24.34;46.29
50172;BME280;37125;48.824;2.410;2023-05-23T00:02:02;101251.41;;;24.30;46.45
50172;BME280;37125;48.824;2.410;2023-05-23T00:02:32;101250.23;;;24.26;46.56
50172;BME280;37125;48.824;2.410;2023-05-23T00:03:03;101251.81;;;24.24;46.61
50172;BME280;37125;48.824;2.410;2023-05-23T00:03:34;101250.43;;;24.23;46.62
50172;BME280;37125;48.824;2.410;2023-05-23T00:04:05;101252.68;;;24.15;46.84
50172;BME280;37125;48.824;2.410;2023-05-23T00:04:36;101255.93;;;24.10;46.99
50172;BME280;37125;48.824;2.410;2023-05-23T00:05:07;101258.95;;;24.15;46.79
50172;BME280;37125;48.824;2.410;2023-05-23T00:05:37;101257.37;;;24.26;46.53
50172;BME280;37125;48.824;2.410;2023-05-23T00:09:08;101263.95;;;24.25;46.56
50172;BME280;37125;48.824;2.410;2023-05-23T00:09:39;101263.26;;;24.15;46.79
50172;BME280;37125;48.824;2.410;2023-05-23T00:10:10;101263.68;;;24.20;46.65
50172;BME280;37125;48.824;2.410;2023-05-23T00:10:40;101270.86;;;24.21;46.71
50172;BME280;37125;48.824;2.410;2023-05-23T00:11:11;101266.28;;;24.13;46.86
50172;BME280;37125;48.824;2.410;2023-05-23T00:11:42;101264.48;;;24.16;46.80
50172;BME280;37125;48.824;2.410;2023-05-23T00:12:12;101263.98;;;24.08;46.95
50172;BME280;37125;48.824;2.410;2023-05-23T00:12:43;101263.41;;;24.10;46.93
50172;BME280;37125;48.824;2.410;2023-05-23T00:13:13;101262.13;;;24.10;47.00
50172;BME280;37125;48.824;2.410;2023-05-23T00:13:45;101264.08;;;24.08;47.01
50172;BME280;37125;48.824;2.410;2023-05-23T00:14:15;101262.82;;;24.11;46.92
50172;BME280;37125;48.824;2.410;2023-05-23T00:14:46;101263.10;;;24.20;46.65
50172;BME280;37125;48.824;2.410;2023-05-23T00:15:17;101258.64;;;24.16;46.73
50172;BME280;37125;48.824;2.410;2023-05-23T00:15:47;101256.68;;;24.24;46.54
50172;BME280;37125;48.824;2.410;2023-05-23T00:16:18;101255.70;;;24.27;46.45
50172;BME280;37125;48.824;2.410;2023-05-23T00:16:49;101255.80;;;24.27;46.47
50172;BME280;37125;48.824;2.410;2023-05-23T00:17:19;101254.07;;;24.28;46.34
50172;BME280;37125;48.824;2.410;2023-05-23T00:17:50;101257.19;;;24.28;46.43
50172;BME280;37125;48.824;2.410;2023-05-23T00:18:21;101258.62;;;24.30;46.40
50172;BME280;37125;48.824;2.410;2023-05-23T00:18:52;101258.14;;;24.24;46.54
50172;BME280;37125;48.824;2.410;2023-05-23T00:19:22;101256.55;;;24.21;46.54
50172;BME280;37125;48.824;2.410;2023-05-23T00:19:53;101256.09;;;24.24;46.50
50172;BME280;37125;48.824;2.410;2023-05-23T00:20:23;101255.26;;;24.18;46.61
50172;BME280;37125;48.824;2.410;2023-05-23T00:20:54;101255.37;;;24.24;46.52
50172;BME280;37125;48.824;2.410;2023-05-23T00:21:24;101258.39;;;24.18;46.63
50172;BME280;37125;48.824;2.410;2023-05-23T00:21:55;101249.75;;;24.20;46.54
50172;BME280;37125;48.824;2.410;2023-05-23T00:22:26;101249.08;;;24.19;46.60
50172;BME280;37125;48.824;2.410;2023-05-23T00:22:56;101250.44;;;24.11;46.81
50172;BME280;37125;48.824;2.410;2023-05-23T00:23:27;101246.31;;;24.18;46.57
50172;BME280;37125;48.824;2.410;2023-05-23T00:23:58;101250.17;;;24.24;46.45
50172;BME280;37125;48.824;2.410;2023-05-23T00:24:28;101249.06;;;24.26;46.40
50172;BME280;37125;48.824;2.410;2023-05-23T00:24:59;101245.87;;;24.15;46.62
50172;BME280;37125;48.824;2.410;2023-05-23T00:25:30;101247.60;;;24.10;46.74
50172;BME280;37125;48.824;2.410;2023-05-23T00:26:00;101249.33;;;24.13;46.73
50172;BME280;37125;48.824;2.410;2023-05-23T00:26:31;101247.25;;;24.10;46.75
50172;BME280;37125;48.824;2.410;2023-05-23T00:27:02;101248.50;;;24.18;46.50
50172;BME280;37125;48.824;2.410;2023-05-23T00:27:32;101247.53;;;24.21;46.45
50172;BME280;37125;48.824;2.410;2023-05-23T00:28:03;101245.05;;;24.15;46.56
50172;BME280;37125;48.824;2.410;2023-05-23T00:28:34;101245.34;;;24.28;46.26
50172;BME280;37125;48.824;2.410;2023-05-23T00:29:04;101245.22;;;24.33;46.08
50172;BME280;37125;48.824;2.410;2023-05-23T00:29:35;101245.62;;;24.30;46.16
50172;BME280;37125;48.824;2.410;2023-05-23T00:30:07;101246.53;;;24.24;46.37
50172;BME280;37125;48.824;2.410;2023-05-23T00:30:38;101243.56;;;24.18;46.52
50172;BME280;37125;48.824;2.410;2023-05-23T00:31:08;101245.28;;;24.16;46.51
50172;BME280;37125;48.824;2.410;2023-05-23T00:31:39;101246.81;;;24.15;46.57
50172;BME280;37125;48.824;2.410;2023-05-23T00:32:09;101247.66;;;24.12;46.65
50172;BME280;37125;48.824;2.410;2023-05-23T00:32:40;101247.53;;;24.15;46.59
50172;BME280;37125;48.824;2.410;2023-05-23T00:33:11;101243.61;;;24.18;46.45
50172;BME280;37125;48.824;2.410;2023-05-23T00:33:42;101245.94;;;24.19;46.49
50172;BME280;37125;48.824;2.410;2023-05-23T00:34:12;101248.37;;;24.19;46.48
50172;BME280;37125;48.824;2.410;2023-05-23T00:34:43;101248.05;;;24.19;46.42
50172;BME280;37125;48.824;2.410;2023-05-23T00:35:14;101248.71;;;24.23;46.36
50172;BME280;37125;48.824;2.410;2023-05-23T00:35:44;101250.21;;;24.14;46.55
50172;BME280;37125;48.824;2.410;2023-05-23T00:36:15;101246.62;;;24.21;46.45
50172;BME280;37125;48.824;2.410;2023-05-23T00:36:46;101247.34;;;24.20;46.40
50172;BME280;37125;48.824;2.410;2023-05-23T00:37:17;101248.64;;;24.30;46.17
50172;BME280;37125;48.824;2.410;2023-05-23T00:37:48;101245.60;;;24.32;46.16
50172;BME280;37125;48.824;2.410;2023-05-23T00:38:18;101245.05;;;24.29;46.22
50172;BME280;37125;48.824;2.410;2023-05-23T00:38:49;101243.38;;;24.23;46.32
50172;BME280;37125;48.824;2.410;2023-05-23T00:39:19;101242.60;;;24.26;46.29
50172;BME280;37125;48.824;2.410;2023-05-23T00:39:50;101245.26;;;24.27;46.28
50172;BME280;37125;48.824;2.410;2023-05-23T00:40:21;101246.69;;;24.27;46.27
50172;BME280;37125;48.824;2.410;2023-05-23T00:40:52;101245.83;;;24.16;46.51
50172;BME280;37125;48.824;2.410;2023-05-23T00:41:22;101244.39;;;24.15;46.55
50172;BME280;37125;48.824;2.410;2023-05-23T00:41:53;101245.50;;;24.12;46.60
50172;BME280;37125;48.824;2.410;2023-05-23T00:42:24;101243.87;;;24.18;46.45
50172;BME280;37125;48.824;2.410;2023-05-23T00:42:54;101247.53;;;24.08;46.69
50172;BME280;37125;48.824;2.410;2023-05-23T00:43:25;101247.93;;;24.19;46.42
50172;BME280;37125;48.824;2.410;2023-05-23T00:43:56;101250.26;;;24.11;46.65
50172;BME280;37125;48.824;2.410;2023-05-23T00:44:27;101248.35;;;24.09;46.67
50172;BME280;37125;48.824;2.410;2023-05-23T00:44:57;101249.15;;;24.09;46.69
50172;BME280;37125;48.824;2.410;2023-05-23T00:45:28;101247.55;;;24.17;46.43
50172;BME280;37125;48.824;2.410;2023-05-23T00:45:59;101246.29;;;24.26;46.21
50172;BME280;37125;48.824;2.410;2023-05-23T00:46:30;101249.13;;;24.24;46.31
50172;BME280;37125;48.824;2.410;2023-05-23T00:47:01;101242.94;;;24.20;46.38
50172;BME280;37125;48.824;2.410;2023-05-23T00:47:32;101250.72;;;24.12;46.60
50172;BME280;37125;48.824;2.410;2023-05-23T00:48:04;101250.62;;;24.14;46.55
50172;BME280;37125;48.824;2.410;2023-05-23T00:48:36;101248.23;;;24.14;46.58
50172;BME280;37125;48.824;2.410;2023-05-23T00:49:07;101247.24;;;24.16;46.49
50172;BME280;37125;48.824;2.410;2023-05-23T00:49:37;101246.36;;;24.18;46.42
50172;BME280;37125;48.824;2.410;2023-05-23T00:50:11;101244.95;;;24.16;46.45
50172;BME280;37125;48.824;2.410;2023-05-23T00:50:42;101250.91;;;24.10;46.57
50172;BME280;37125;48.824;2.410;2023-05-23T00:51:13;101242.34;;;24.19;46.39
50172;BME280;37125;48.824;2.410;2023-05-23T00:51:43;101249.36;;;24.11;46.59
50172;BME280;37125;48.824;2.410;2023-05-23T00:52:14;101245.33;;;24.09;46.61
50172;BME280;37125;48.824;2.410;2023-05-23T00:52:47;101249.31;;;24.14;46.44
50172;BME280;37125;48.824;2.410;2023-05-23T00:53:19;101244.17;;;24.23;46.23
50172;BME280;37125;48.824;2.410;2023-05-23T00:53:50;101244.81;;;24.27;46.10
50172;BME280;37125;48.824;2.410;2023-05-23T00:54:24;101245.92;;;24.15;46.42
50172;BME280;37125;48.824;2.410;2023-05-23T00:54:55;101251.42;;;24.14;46.34
50172;BME280;37125;48.824;2.410;2023-05-23T00:55:26;101250.80;;;24.10;46.52
50172;BME280;37125;48.824;2.410;2023-05-23T00:55:58;101253.41;;;24.14;46.44
50172;BME280;37125;48.824;2.410;2023-05-23T00:56:29;101250.40;;;24.12;46.45
50172;BME280;37125;48.824;2.410;2023-05-23T00:57:00;101255.38;;;24.14;46.43
50172;BME280;37125;48.824;2.410;2023-05-23T00:57:31;101252.19;;;24.11;46.52
50172;BME280;37125;48.824;2.410;2023-05-23T00:58:02;101250.92;;;24.08;46.53
50172;BME280;37125;48.824;2.410;2023-05-23T00:58:32;101251.16;;;24.10;46.48
50172;BME280;37125;48.824;2.410;2023-05-23T00:59:04;101250.86;;;24.12;46.44
50172;BME280;37125;48.824;2.410;2023-05-23T00:59:36;101247.67;;;24.15;46.37
50172;BME280;37125;48.824;2.410;2023-05-23T01:00:09;101246.86;;;24.22;46.19
50172;BME280;37125;48.824;2.410;2023-05-23T01:00:40;101244.56;;;24.27;46.09
50172;BME280;37125;48.824;2.410;2023-05-23T01:01:11;101244.74;;;24.28;46.03
50172;BME280;37125;48.824;2.410;2023-05-23T01:01:42;101241.53;;;24.25;46.09
50172;BME280;37125;48.824;2.410;2023-05-23T01:02:13;101241.92;;;24.26;46.06
50172;BME280;37125;48.824;2.410;2023-05-23T01:02:45;101240.63;;;24.28;46.02
50172;BME280;37125;48.824;2.410;2023-05-23T01:03:16;101244.28;;;24.26;46.02
50172;BME280;37125;48.824;2.410;2023-05-23T01:03:47;101237.37;;;24.25;46.08
50172;BME280;37125;48.824;2.410;2023-05-23T01:04:17;101235.09;;;24.29;45.97
50172;BME280;37125;48.824;2.410;2023-05-23T01:04:48;101238.96;;;24.30;45.95
50172;BME280;37125;48.824;2.410;2023-05-23T01:05:20;101238.60;;;24.25;46.02
50172;BME280;37125;48.824;2.410;2023-05-23T01:05:51;101238.05;;;24.22;46.12
50172;BME280;37125;48.824;2.410;2023-05-23T01:06:21;101239.21;;;24.20;46.17
50172;BME280;37125;48.824;2.410;2023-05-23T01:06:53;101238.30;;;24.21;46.13
50172;BME280;37125;48.824;2.410;2023-05-23T01:07:24;101238.60;;;24.21;46.11
50172;BME280;37125;48.824;2.410;2023-05-23T01:07:55;101236.54;;;24.19;46.10
50172;BME280;37125;48.824;2.410;2023-05-23T01:08:27;101239.40;;;24.17;46.22
50172;BME280;37125;48.824;2.410;2023-05-23T01:08:58;101244.92;;;24.13;46.36
50172;BME280;37125;48.824;2.410;2023-05-23T01:09:30;101243.13;;;24.11;46.37
50172;BME280;37125;48.824;2.410;2023-05-23T01:10:01;101243.07;;;24.10;46.39
50172;BME280;37125;48.824;2.410;2023-05-23T01:10:32;101240.91;;;24.04;46.56
50172;BME280;37125;48.824;2.410;2023-05-23T01:11:07;101238.04;;;24.11;46.37
50172;BME280;37125;48.824;2.410;2023-05-23T01:11:43;101239.46;;;24.06;46.41
50172;BME280;37125;48.824;2.410;2023-05-23T01:12:19;101240.23;;;24.08;46.43
50172;BME280;37125;48.824;2.410;2023-05-23T01:13:01;101234.66;;;24.15;46.24
50172;BME280;37125;48.824;2.410;2023-05-23T01:13:40;101235.38;;;24.18;46.16
50172;BME280;37125;48.824;2.410;2023-05-23T01:14:24;101235.51;;;24.20;46.00
50172;BME280;37125;48.824;2.410;2023-05-23T01:15:02;101239.66;;;24.08;46.31
50172;BME280;37125;48.824;2.410;2023-05-23T01:15:39;101236.70;;;24.18;46.07
50172;BME280;37125;48.824;2.410;2023-05-23T01:16:13;101237.31;;;24.19;46.06
50172;BME280;37125;48.824;2.410;2023-05-23T01:16:51;101237.69;;;24.15;46.20
50172;BME280;37125;48.824;2.410;2023-05-23T01:17:33;101240.62;;;24.10;46.30
50172;BME280;37125;48.824;2.410;2023-05-23T01:18:07;101239.61;;;24.10;46.34
50172;BME280;37125;48.824;2.410;2023-05-23T01:18:52;101241.90;;;24.06;46.41
50172;BME280;37125;48.824;2.410;2023-05-23T01:19:41;101239.93;;;24.12;46.21
50172;BME280;37125;48.824;2.410;2023-05-23T01:20:20;101240.22;;;24.15;46.16
50172;BME280;37125;48.824;2.410;2023-05-23T01:20:54;101241.80;;;24.10;46.30
50172;BME280;37125;48.824;2.410;2023-05-23T01:21:25;101242.95;;;24.06;46.37
50172;BME280;37125;48.824;2.410;2023-05-23T01:22:00;101239.95;;;24.07;46.41
50172;BME280;37125;48.824;2.410;2023-05-23T01:22:50;101244.42;;;24.07;46.40
50172;BME280;37125;48.824;2.410;2023-05-23T01:23:44;101244.51;;;24.18;46.09
50172;BME280;37125;48.824;2.410;2023-05-23T01:24:34;101246.19;;;24.04;46.41
50172;BME280;37125;48.824;2.410;2023-05-23T01:25:16;101247.49;;;24.07;46.29
50172;BME280;37125;48.824;2.410;2023-05-23T01:26:06;101248.39;;;24.11;46.16
50172;BME280;37125;48.824;2.410;2023-05-23T01:26:55;101247.74;;;24.16;46.06
50172;BME280;37125;48.824;2.410;2023-05-23T01:27:43;101250.38;;;24.07;46.29
50172;BME280;37125;48.824;2.410;2023-05-23T01:28:16;101247.68;;;24.16;46.10
50172;BME280;37125;48.824;2.410;2023-05-23T01:28:53;101246.80;;;24.21;45.95
50172;BME280;37125;48.824;2.410;2023-05-23T01:29:28;101245.03;;;24.20;45.92
50172;BME280;37125;48.824;2.410;2023-05-23T01:30:04;101249.40;;;24.11;46.17
50172;BME280;37125;48.824;2.410;2023-05-23T01:30:39;101249.73;;;24.16;46.06
50172;BME280;37125;48.824;2.410;2023-05-23T01:31:12;101252.45;;;24.13;46.11
50172;BME280;37125;48.824;2.410;2023-05-23T01:31:44;101254.28;;;24.14;46.09
50172;BME280;37125;48.824;2.410;2023-05-23T01:32:16;101251.46;;;24.08;46.21
50172;BME280;37125;48.824;2.410;2023-05-23T01:32:50;101254.62;;;24.14;46.06
50172;BME280;37125;48.824;2.410;2023-05-23T01:33:24;101253.35;;;24.17;45.99
50172;BME280;37125;48.824;2.410;2023-05-23T01:33:55;101255.30;;;24.07;46.18
50172;BME280;37125;48.824;2.410;2023-05-23T01:34:26;101255.09;;;24.02;46.32
50172;BME280;37125;48.824;2.410;2023-05-23T01:34:58;101255.41;;;24.05;46.28
50172;BME280;37125;48.824;2.410;2023-05-23T01:35:30;101254.34;;;24.09;46.16
50172;BME280;37125;48.824;2.410;2023-05-23T01:36:01;101256.19;;;24.14;45.99
50172;BME280;37125;48.824;2.410;2023-05-23T01:36:33;101258.80;;;24.20;45.82
50172;BME280;37125;48.824;2.410;2023-05-23T01:37:07;101258.16;;;24.14;45.96
50172;BME280;37125;48.824;2.410;2023-05-23T01:37:39;101259.12;;;24.18;45.85
50172;BME280;37125;48.824;2.410;2023-05-23T01:38:10;101258.52;;;24.14;46.04
50172;BME280;37125;48.824;2.410;2023-05-23T01:38:41;101260.40;;;24.06;46.20
50172;BME280;37125;48.824;2.410;2023-05-23T01:39:11;101259.60;;;24.07;46.17
50172;BME280;37125;48.824;2.410;2023-05-23T01:39:42;101261.55;;;24.08;46.15
50172;BME280;37125;48.824;2.410;2023-05-23T01:40:13;101261.80;;;24.07;46.13
50172;BME280;37125;48.824;2.410;2023-05-23T01:40:43;101258.89;;;24.09;46.11
50172;BME280;37125;48.824;2.410;2023-05-23T01:41:14;101260.59;;;24.05;46.17
50172;BME280;37125;48.824;2.410;2023-05-23T01:41:45;101260.87;;;24.08;46.05
50172;BME280;37125;48.824;2.410;2023-05-23T01:42:16;101263.13;;;24.05;46.07
50172;BME280;37125;48.824;2.410;2023-05-23T01:42:48;101265.68;;;23.99;46.18
50172;BME280;37125;48.824;2.410;2023-05-23T01:43:19;101263.76;;;24.04;46.11
50172;BME280;37125;48.824;2.410;2023-05-23T01:43:50;101263.54;;;24.04;46.08
50172;BME280;37125;48.824;2.410;2023-05-23T01:44:21;101266.44;;;24.09;45.98
50172;BME280;37125;48.824;2.410;2023-05-23T01:44:52;101266.87;;;24.04;46.11
50172;BME280;37125;48.824;2.410;2023-05-23T01:45:25;101262.98;;;24.07;46.03
50172;BME280;37125;48.824;2.410;2023-05-23T01:45:56;101265.18;;;24.06;46.05
50172;BME280;37125;48.824;2.410;2023-05-23T01:46:28;101265.33;;;24.01;46.16
50172;BME280;37125;48.824;2.410;2023-05-23T01:47:02;101266.60;;;23.95;46.32
50172;BME280;37125;48.824;2.410;2023-05-23T01:47:33;101265.59;;;24.00;46.22
50172;BME280;37125;48.824;2.410;2023-05-23T01:48:05;101268.57;;;23.98;46.29
50172;BME280;37125;48.824;2.410;2023-05-23T01:48:37;101268.78;;;24.01;46.20
50172;BME280;37125;48.824;2.410;2023-05-23T01:49:11;101269.88;;;24.06;46.07
50172;BME280;37125;48.824;2.410;2023-05-23T01:49:43;101268.84;;;24.04;46.11
50172;BME280;37125;48.824;2.410;2023-05-23T01:50:15;101271.15;;;24.00;46.19
50172;BME280;37125;48.824;2.410;2023-05-23T01:50:47;101269.17;;;24.04;46.14
50172;BME280;37125;48.824;2.410;2023-05-23T01:51:18;101267.64;;;24.05;46.11
50172;BME280;37125;48.824;2.410;2023-05-23T01:51:49;101268.28;;;24.05;46.14
50172;BME280;37125;48.824;2.410;2023-05-23T01:52:20;101270.03;;;24.00;46.26
50172;BME280;37125;48.824;2.410;2023-05-23T01:52:52;101268.95;;;23.97;46.38
50172;BME280;37125;48.824;2.410;2023-05-23T01:53:24;101268.26;;;23.99;46.33
50172;BME280;37125;48.824;2.410;2023-05-23T01:53:55;101268.32;;;24.03;46.22
50172;BME280;37125;48.824;2.410;2023-05-23T01:54:27;101271.77;;;24.08;46.10
50172;BME280;37125;48.824;2.410;2023-05-23T01:54:58;101268.59;;;24.07;46.12
50172;BME280;37125;48.824;2.410;2023-05-23T01:55:29;101269.98;;;24.03;46.13
50172;BME280;37125;48.824;2.410;2023-05-23T01:56:01;101268.21;;;24.05;46.14
50172;BME280;37125;48.824;2.410;2023-05-23T01:56:32;101267.77;;;24.02;46.22
50172;BME280;37125;48.824;2.410;2023-05-23T01:57:04;101269.24;;;24.00;46.26
50172;BME280;37125;48.824;2.410;2023-05-23T01:57:36;101268.95;;;23.98;46.30
50172;BME280;37125;48.824;2.410;2023-05-23T01:58:07;101266.87;;;23.97;46.32
50172;BME280;37125;48.824;2.410;2023-05-23T01:58:38;101267.62;;;24.05;46.09
50172;BME280;37125;48.824;2.410;2023-05-23T01:59:09;101265.11;;;24.06;46.07
50172;BME280;37125;48.824;2.410;2023-05-23T01:59:40;101264.39;;;24.00;46.22
50172;BME280;37125;48.824;2.410;2023-05-23T02:00:11;101267.24;;;24.06;46.06
50172;BME280;37125;48.824;2.410;2023-05-23T02:00:42;101265.09;;;24.02;46.11
50172;BME280;37125;48.824;2.410;2023-05-23T02:01:13;101266.19;;;24.12;45.89
50172;BME280;37125;48.824;2.410;2023-05-23T02:01:44;101266.38;;;24.10;45.93
50172;BME280;37125;48.824;2.410;2023-05-23T02:02:15;101263.54;;;24.01;46.15
50172;BME280;37125;48.824;2.410;2023-05-23T02:02:46;101264.86;;;24.03;46.12
50172;BME280;37125;48.824;2.410;2023-05-23T02:03:17;101263.35;;;23.99;46.24
50172;BME280;37125;48.824;2.410;2023-05-23T02:03:48;101264.64;;;24.04;46.13
50172;BME280;37125;48.824;2.410;2023-05-23T02:04:18;101265.56;;;24.08;45.99
50172;BME280;37125;48.824;2.410;2023-05-23T02:04:49;101265.70;;;24.11;45.92
50172;BME280;37125;48.824;2.410;2023-05-23T02:05:20;101267.93;;;24.00;46.15
50172;BME280;37125;48.824;2.410;2023-05-23T02:05:50;101269.50;;;24.08;45.95
50172;BME280;37125;48.824;2.410;2023-05-23T02:06:21;101268.55;;;24.10;45.93
50172;BME280;37125;48.824;2.410;2023-05-23T02:06:51;101268.66;;;24.12;45.85
50172;BME280;37125;48.824;2.410;2023-05-23T02:07:22;101268.27;;;24.12;45.86
50172;BME280;37125;48.824;2.410;2023-05-23T02:07:53;101271.16;;;24.12;45.89
50172;BME280;37125;48.824;2.410;2023-05-23T02:08:23;101269.70;;;24.02;46.12
50172;BME280;37125;48.824;2.410;2023-05-23T02:08:54;101271.13;;;24.02;46.12
50172;BME280;37125;48.824;2.410;2023-05-23T02:09:25;101268.58;;;24.00;46.14
50172;BME280;37125;48.824;2.410;2023-05-23T02:09:55;101269.32;;;24.06;46.03
50172;BME280;37125;48.824;2.410;2023-05-23T02:10:26;101269.57;;;24.07;45.99
50172;BME280;37125;48.824;2.410;2023-05-23T02:10:57;101269.89;;;24.13;45.80
50172;BME280;37125;48.824;2.410;2023-05-23T02:11:27;101273.87;;;24.11;45.83
50172;BME280;37125;48.824;2.410;2023-05-23T02:11:58;101271.56;;;24.03;46.01
50172;BME280;37125;48.824;2.410;2023-05-23T02:12:29;101271.33;;;23.97;46.18
50172;BME280;37125;48.824;2.410;2023-05-23T02:12:59;101270.56;;;23.99;46.11
50172;BME280;37125;48.824;2.410;2023-05-23T02:13:30;101272.01;;;23.98;46.11
50172;BME280;37125;48.824;2.410;2023-05-23T02:14:01;101274.22;;;24.03;46.00
50172;BME280;37125;48.824;2.410;2023-05-23T02:14:32;101270.82;;;23.95;46.18
50172;BME280;37125;48.824;2.410;2023-05-23T02:15:03;101271.47;;;24.00;46.08
50172;BME280;37125;48.824;2.410;2023-05-23T02:15:34;101274.34;;;24.05;45.91
50172;BME280;37125;48.824;2.410;2023-05-23T02:16:05;101274.34;;;23.96;46.12
50172;BME280;37125;48.824;2.410;2023-05-23T02:16:35;101271.95;;;23.99;46.06
50172;BME280;37125;48.824;2.410;2023-05-23T02:17:06;101271.69;;;23.99;46.00
50172;BME280;37125;48.824;2.410;2023-05-23T02:17:37;101274.22;;;24.01;45.99
50172;BME280;37125;48.824;2.410;2023-05-23T02:18:07;101270.25;;;24.06;45.83
50172;BME280;37125;48.824;2.410;2023-05-23T02:18:38;101270.09;;;24.07;45.82
50172;BME280;37125;48.824;2.410;2023-05-23T02:19:08;101270.47;;;24.03;45.90
50172;BME280;37125;48.824;2.410;2023-05-23T02:19:39;101271.12;;;24.00;46.00
50172;BME280;37125;48.824;2.410;2023-05-23T02:20:10;101269.36;;;23.98;46.04
50172;BME280;37125;48.824;2.410;2023-05-23T02:20:40;101268.96;;;23.96;46.08
50172;BME280;37125;48.824;2.410;2023-05-23T02:21:11;101267.15;;;23.98;46.00
50172;BME280;37125;48.824;2.410;2023-05-23T02:21:42;101271.29;;;23.94;46.08
50172;BME280;37125;48.824;2.410;2023-05-23T02:22:13;101271.52;;;23.90;46.24
50172;BME280;37125;48.824;2.410;2023-05-23T02:22:43;101270.63;;;23.93;46.11
50172;BME280;37125;48.824;2.410;2023-05-23T02:23:14;101274.00;;;24.02;45.91
50172;BME280;37125;48.824;2.410;2023-05-23T02:23:44;101276.80;;;23.94;46.10
50172;BME280;37125;48.824;2.410;2023-05-23T02:24:15;101275.68;;;23.94;46.07
50172;BME280;37125;48.824;2.410;2023-05-23T02:24:46;101278.35;;;23.97;46.00
50172;BME280;37125;48.824;2.410;2023-05-23T02:25:16;101277.57;;;24.01;45.95
50172;BME280;37125;48.824;2.410;2023-05-23T02:25:47;101276.49;;;24.03;45.83
50172;BME280;37125;48.824;2.410;2023-05-23T02:26:18;101276.04;;;24.05;45.76
50172;BME280;37125;48.824;2.410;2023-05-23T02:26:48;101276.13;;;23.97;45.97
50172;BME280;37125;48.824;2.410;2023-05-23T02:27:19;101275.84;;;23.98;45.94
50172;BME280;37125;48.824;2.410;2023-05-23T02:27:50;101276.33;;;23.99;45.91
50172;BME280;37125;48.824;2.410;2023-05-23T02:28:20;101277.09;;;23.98;45.92
50172;BME280;37125;48.824;2.410;2023-05-23T02:28:51;101277.64;;;23.98;45.91
50172;BME280;37125;48.824;2.410;2023-05-23T02:29:21;101276.36;;;23.99;45.89
50172;BME280;37125;48.824;2.410;2023-05-23T02:29:52;101278.27;;;24.00;45.84
50172;BME280;37125;48.824;2.410;2023-05-23T02:30:23;101280.00;;;24.01;45.83
50172;BME280;37125;48.824;2.410;2023-05-23T02:30:53;101277.06;;;24.02;45.81
50172;BME280;37125;48.824;2.410;2023-05-23T02:31:24;101278.11;;;24.02;45.76
50172;BME280;37125;48.824;2.410;2023-05-23T02:31:55;101278.43;;;23.98;45.88
50172;BME280;37125;48.824;2.410;2023-05-23T02:32:26;101278.14;;;23.97;45.90
50172;BME280;37125;48.824;2.410;2023-05-23T02:32:56;101278.71;;;23.96;45.90
50172;BME280;37125;48.824;2.410;2023-05-23T02:33:27;101277.92;;;24.00;45.82
50172;BME280;37125;48.824;2.410;2023-05-23T02:33:57;101280.19;;;24.07;45.59
50172;BME280;37125;48.824;2.410;2023-05-23T02:34:28;101279.34;;;24.04;45.68
50172;BME280;37125;48.824;2.410;2023-05-23T02:34:58;101279.08;;;24.02;45.70
50172;BME280;37125;48.824;2.410;2023-05-23T02:35:29;101278.09;;;23.91;46.02
50172;BME280;37125;48.824;2.410;2023-05-23T02:36:00;101275.87;;;23.87;46.08
50172;BME280;37125;48.824;2.410;2023-05-23T02:36:30;101276.98;;;23.93;45.96
50172;BME280;37125;48.824;2.410;2023-05-23T02:37:01;101277.19;;;23.86;46.13
50172;BME280;37125;48.824;2.410;2023-05-23T02:37:32;101276.67;;;23.89;46.07
50172;BME280;37125;48.824;2.410;2023-05-23T02:38:02;101276.76;;;23.87;46.11
50172;BME280;37125;48.824;2.410;2023-05-23T02:38:33;101275.92;;;23.84;46.15
50172;BME280;37125;48.824;2.410;2023-05-23T02:39:04;101274.89;;;23.86;46.15
50172;BME280;37125;48.824;2.410;2023-05-23T02:39:35;101273.77;;;23.85;46.13
50172;BME280;37125;48.824;2.410;2023-05-23T02:40:07;101272.40;;;23.89;46.04
50172;BME280;37125;48.824;2.410;2023-05-23T02:40:38;101275.20;;;23.91;46.01
50172;BME280;37125;48.824;2.410;2023-05-23T02:41:08;101272.59;;;23.87;46.08
50172;BME280;37125;48.824;2.410;2023-05-23T02:41:39;101272.83;;;23.81;46.20
50172;BME280;37125;48.824;2.410;2023-05-23T02:42:10;101274.56;;;23.83;46.19
50172;BME280;37125;48.824;2.410;2023-05-23T02:42:40;101272.95;;;23.85;46.11
50172;BME280;37125;48.824;2.410;2023-05-23T02:43:11;101269.42;;;23.80;46.16
50172;BME280;37125;48.824;2.410;2023-05-23T02:43:41;101270.09;;;23.83;46.12
50172;BME280;37125;48.824;2.410;2023-05-23T02:44:14;101269.52;;;23.89;45.90
50172;BME280;37125;48.824;2.410;2023-05-23T02:44:44;101268.35;;;23.97;45.66
50172;BME280;37125;48.824;2.410;2023-05-23T02:45:15;101268.38;;;24.01;45.56
50172;BME280;37125;48.824;2.410;2023-05-23T02:45:46;101269.32;;;23.92;45.74
50172;BME280;37125;48.824;2.410;2023-05-23T02:46:16;101269.30;;;23.89;45.81
50172;BME280;37125;48.824;2.410;2023-05-23T02:46:47;101268.05;;;23.89;45.81
50172;BME280;37125;48.824;2.410;2023-05-23T02:47:17;101273.39;;;23.91;45.79
50172;BME280;37125;48.824;2.410;2023-05-23T02:47:48;101271.78;;;23.89;45.81
50172;BME280;37125;48.824;2.410;2023-05-23T02:48:19;101272.19;;;23.93;45.74
50172;BME280;37125;48.824;2.410;2023-05-23T02:48:49;101269.73;;;23.92;45.72
50172;BME280;37125;48.824;2.410;2023-05-23T02:49:20;101270.77;;;23.93;45.67
50172;BME280;37125;48.824;2.410;2023-05-23T02:49:50;101272.27;;;23.94;45.65